Time,TemperatureF,DewpointF,PressureIn,WindDirection,WindDirectionDegrees,WindSpeedMPH,WindSpeedGustMPH,Humidity,HourlyPrecipIn,Conditions,Clouds,dailyrainin,SoftwareType,DateUTC
2013-10-11 00:43:00,62.0,54.0,30.02,SE,140,5.0,6.0,74,0.00,,,0.00,,2013-10-11 05:43:00,
2013-10-11 00:52:00,62.0,54.0,30.02,SE,140,5.0,5.0,74,0.00,,,0.00,,2013-10-11 05:52:00,
2013-10-11 01:12:00,62.0,54.0,30.02,SE,140,5.0,5.0,74,0.00,,,0.00,,2013-10-11 06:12:00,
2013-10-11 01:22:00,62.0,54.0,30.02,SE,140,5.0,5.0,74,0.00,,,0.00,,2013-10-11 06:22:00,
2013-10-11 01:43:00,62.0,54.0,30.02,SSE,150,5.0,5.0,74,0.00,,,0.00,,2013-10-11 06:43:00,
2013-10-11 01:52:00,62.0,54.0,30.02,SSE,150,5.0,5.0,74,0.00,,,0.00,,2013-10-11 06:52:00,
2013-10-11 02:11:00,62.0,54.0,30.02,SSE,150,5.0,5.0,74,0.00,,,0.00,,2013-10-11 07:11:00,
2013-10-11 02:21:00,62.0,54.0,30.02,SSE,150,5.0,5.0,74,0.00,,,0.00,,2013-10-11 07:21:00,
2013-10-11 02:42:00,62.0,54.0,30.02,SSE,160,6.0,6.0,74,0.00,,,0.00,,2013-10-11 07:42:00,
2013-10-11 02:52:00,62.0,54.0,30.02,SSE,160,6.0,6.0,74,0.00,,,0.00,,2013-10-11 07:52:00,
2013-10-11 03:11:00,62.0,54.0,30.02,SSE,160,6.0,6.0,74,0.00,,,0.00,,2013-10-11 08:11:00,
2013-10-11 03:22:00,62.0,54.0,30.02,SSE,160,6.0,6.0,74,0.00,,,0.00,,2013-10-11 08:22:00,
2013-10-11 03:42:00,61.0,54.0,30.01,SE,140,6.0,6.0,77,0.00,,,0.00,,2013-10-11 08:42:00,
2013-10-11 03:52:00,61.0,54.0,30.01,SE,140,6.0,6.0,77,0.00,,,0.00,,2013-10-11 08:52:00,
2013-10-11 04:22:00,61.0,54.0,30.01,SE,140,6.0,6.0,77,0.00,,,0.00,,2013-10-11 09:22:00,
2013-10-11 04:43:00,60.0,53.0,30.03,SSE,150,3.0,6.0,77,0.00,,,0.00,,2013-10-11 09:43:00,
2013-10-11 04:54:00,60.0,53.0,30.03,SSE,150,3.0,3.0,77,0.00,,,0.00,,2013-10-11 09:54:00,
2013-10-11 05:12:00,60.0,53.0,30.03,SSE,150,3.0,3.0,77,0.00,,,0.00,,2013-10-11 10:12:00,
2013-10-11 05:23:00,60.0,53.0,30.03,SSE,150,3.0,3.0,77,0.00,,,0.00,,2013-10-11 10:23:00,
2013-10-11 05:53:00,59.0,53.0,30.04,ESE,110,3.0,3.0,80,0.00,,,0.00,,2013-10-11 10:53:00,
2013-10-11 06:22:00,59.0,53.0,30.04,ESE,110,3.0,3.0,80,0.00,,,0.00,,2013-10-11 11:22:00,
2013-10-11 06:52:00,58.0,53.0,30.04,SSE,150,3.0,3.0,83,0.00,,,0.00,,2013-10-11 11:52:00,
2013-10-11 07:11:00,58.0,53.0,30.04,SSE,150,3.0,3.0,83,0.00,,,0.00,,2013-10-11 12:11:00,
2013-10-11 07:22:00,58.0,53.0,30.04,SSE,150,3.0,3.0,83,0.00,,,0.00,,2013-10-11 12:22:00,
2013-10-11 07:42:00,58.0,54.0,30.04,SSE,150,5.0,5.0,86,0.00,,,0.00,,2013-10-11 12:42:00,
2013-10-11 07:52:00,58.0,54.0,30.04,SSE,150,5.0,5.0,86,0.00,,,0.00,,2013-10-11 12:52:00,
2013-10-11 08:12:00,58.0,54.0,30.04,SSE,150,5.0,5.0,86,0.00,,,0.00,,2013-10-11 13:12:00,
2013-10-11 08:21:00,58.0,54.0,30.04,SSE,150,5.0,5.0,86,0.00,,,0.00,,2013-10-11 13:21:00,
2013-10-11 08:42:00,59.0,55.0,30.04,SE,130,3.0,5.0,86,0.00,,,0.00,,2013-10-11 13:42:00,
2013-10-11 08:53:00,59.0,55.0,30.04,SE,130,3.0,3.0,86,0.00,,,0.00,,2013-10-11 13:53:00,
2013-10-11 09:11:00,59.0,55.0,30.04,SE,130,3.0,3.0,86,0.00,,,0.00,,2013-10-11 14:11:00,
2013-10-11 09:22:00,59.0,55.0,30.04,SE,130,3.0,3.0,86,0.00,,,0.00,,2013-10-11 14:22:00,
2013-10-11 09:52:00,62.0,56.0,30.05,South,180,6.0,6.0,80,0.00,,,0.00,,2013-10-11 14:52:00,
2013-10-11 10:22:00,62.0,56.0,30.05,South,180,6.0,6.0,80,0.00,,,0.00,,2013-10-11 15:22:00,
2013-10-11 10:44:00,67.0,58.0,30.04,South,170,8.0,8.0,72,0.00,,,0.00,,2013-10-11 15:44:00,
2013-10-11 10:54:00,67.0,58.0,30.04,South,170,8.0,8.0,72,0.00,,,0.00,,2013-10-11 15:54:00,
2013-10-11 11:22:00,67.0,58.0,30.04,South,170,8.0,8.0,72,0.00,,,0.00,,2013-10-11 16:22:00,
2013-10-11 11:43:00,72.0,59.0,30.03,South,170,14.0,14.0,63,0.00,,,0.00,,2013-10-11 16:43:00,
2013-10-11 11:53:00,72.0,59.0,30.03,South,170,14.0,14.0,63,0.00,,,0.00,,2013-10-11 16:53:00,
2013-10-11 12:22:00,72.0,59.0,30.03,South,170,14.0,14.0,63,0.00,,,0.00,,2013-10-11 17:22:00,
2013-10-11 12:43:00,72.0,57.0,30.02,South,190,12.0,25.0,59,0.00,,,0.00,,2013-10-11 17:43:00,
2013-10-11 12:53:00,72.0,57.0,30.02,South,190,12.0,25.0,59,0.00,,,0.00,,2013-10-11 17:53:00,
2013-10-11 13:12:00,72.0,57.0,30.02,South,190,12.0,25.0,59,0.00,,,0.00,,2013-10-11 18:12:00,
2013-10-11 13:21:00,72.0,57.0,30.02,South,190,12.0,25.0,59,0.00,,,0.00,,2013-10-11 18:21:00,
2013-10-11 13:43:00,76.0,57.0,29.99,South,190,14.0,28.0,51,0.00,,,0.00,,2013-10-11 18:43:00,
2013-10-11 13:53:00,76.0,57.0,29.99,South,190,14.0,28.0,51,0.00,,,0.00,,2013-10-11 18:53:00,
2013-10-11 14:11:00,76.0,57.0,29.99,South,190,14.0,28.0,51,0.00,,,0.00,,2013-10-11 19:11:00,
2013-10-11 14:22:00,76.0,57.0,29.99,South,190,14.0,28.0,51,0.00,,,0.00,,2013-10-11 19:22:00,
2013-10-11 14:42:00,77.0,53.0,29.95,SSE,150,12.0,28.0,44,0.00,,,0.00,,2013-10-11 19:42:00,
2013-10-11 14:52:00,77.0,53.0,29.95,SSE,150,12.0,26.0,44,0.00,,,0.00,,2013-10-11 19:52:00,
2013-10-11 15:12:00,77.0,53.0,29.95,SSE,150,12.0,26.0,44,0.00,,,0.00,,2013-10-11 20:12:00,
2013-10-11 15:22:00,77.0,53.0,29.95,SSE,150,12.0,26.0,44,0.00,,,0.00,,2013-10-11 20:22:00,
2013-10-11 15:53:00,79.0,55.0,29.94,South,170,13.0,30.0,43,0.00,,,0.00,,2013-10-11 20:53:00,
2013-10-11 16:22:00,79.0,55.0,29.94,South,170,13.0,30.0,43,0.00,,,0.00,,2013-10-11 21:22:00,
2013-10-11 16:55:00,79.0,53.0,29.91,South,170,18.0,29.0,40,0.00,,,0.00,,2013-10-11 21:55:00,
2013-10-11 17:24:00,79.0,53.0,29.91,South,170,18.0,29.0,40,0.00,,,0.00,,2013-10-11 22:24:00,
2013-10-11 17:43:00,78.0,52.0,29.91,SSE,160,14.0,29.0,41,0.00,,,0.00,,2013-10-11 22:43:00,
2013-10-11 17:54:00,78.0,52.0,29.91,SSE,160,14.0,14.0,41,0.00,,,0.00,,2013-10-11 22:54:00,
2013-10-11 18:22:00,78.0,52.0,29.91,SSE,160,14.0,14.0,41,0.00,,,0.00,,2013-10-11 23:22:00,
2013-10-11 18:53:00,76.0,52.0,29.91,SSE,150,10.0,10.0,43,0.00,,,0.00,,2013-10-11 23:53:00,
2013-10-11 19:12:00,76.0,52.0,29.91,SSE,150,10.0,10.0,43,0.00,,,0.00,,2013-10-12 00:12:00,
2013-10-11 19:22:00,76.0,52.0,29.91,SSE,150,10.0,10.0,43,0.00,,,0.00,,2013-10-12 00:22:00,
2013-10-11 19:53:00,73.0,53.0,29.91,SSE,160,10.0,10.0,49,0.00,,,0.00,,2013-10-12 00:53:00,
2013-10-11 20:52:00,71.0,52.0,29.93,South,170,7.0,7.0,52,0.00,,,0.00,,2013-10-12 01:52:00,
2013-10-11 21:52:00,68.0,53.0,29.95,South,180,9.0,9.0,58,0.00,,,0.00,,2013-10-12 02:52:00,
2013-10-11 22:44:00,67.0,53.0,29.96,South,170,10.0,10.0,61,0.00,,,0.00,,2013-10-12 03:44:00,
2013-10-11 22:54:00,67.0,53.0,29.96,South,170,10.0,10.0,61,0.00,,,0.00,,2013-10-12 03:54:00,
2013-10-11 23:24:00,67.0,53.0,29.96,South,170,10.0,10.0,61,0.00,,,0.00,,2013-10-12 04:24:00,
2013-10-11 23:54:00,66.0,54.0,29.95,South,180,9.0,9.0,65,0.00,,,0.00,,2013-10-12 04:54:00,